Seekonk, MA

10:47 AM EDT on July 04, 2015 (GMT -0400)
Seekonk River | | Change Station
CLOSE
Current Station
Personal Weather Station
Location: Providence, RI
Elevation: 0 ft
Nearby Weather Stations

Elev 0 ft 41.83 °N, 71.38 °W | Updated 1 minute ago

Overcast
Overcast
71.4 °F
Feels Like 75 °F
N
0.0
Wind Variable Wind from SE
Gusts 3.0 mph

Today
High -- | Low -- °F
--% Chance of Precip.
Yesterday
High -- | Low -- °F
Precip. -- in
5:15 AM 8:23 PM
Waning Gibbous, 92% visible
Pressure 29.99 in
Visibility 10.0 miles
Clouds Few 6000 ft
Scattered Clouds 11000 ft
Mostly Cloudy 15000 ft
Heat Index 75 °F
Dew Point 59 °F
Humidity 65%
Rainfall 0.00 in
Snow Depth Not available.
UV 4 out of 12
Pollen 1.90 out of 12
Air Quality Not available.
Flu Activity Not available.
METAR KPVD 041351Z 13003KT 10SM FEW060 SCT110 BKN150 21/16 A2999 RMK AO2 SLP154 T02060156

More Conditions Fewer Conditions

Pressure 29.99 in
Visibility 10.0 miles
Clouds Few 6000 ft
Scattered Clouds 11000 ft
Mostly Cloudy 15000 ft
Heat Index 75 °F
Dew Point 59 °F
Humidity 65%
Rainfall 0.00 in
Snow Depth Not available.
UV 4 out of 12
Pollen 1.90 out of 12
Air Quality Not available.
Flu Activity Not available.
METAR KPVD 041351Z 13003KT 10SM FEW060 SCT110 BKN150 21/16 A2999 RMK AO2 SLP154 T02060156

More Conditions Fewer Conditions

10-Day Weather Forecast

×

Almanac

Astronomy

Jul. 04, 2015 Rise Set
Actual Time
Civil Twilight
Nautical Twilight
Astronomical Twilight
Moon
Length of Visible Light
Length of Day
Tomorrow will be .
, % of the Moon is Illuminated

Today's Extremes

State Highs State Lows

Community

WunderPhotos

Upload Photos

1,834,982 photos uploaded!

WunderBlogs® & News

Nearby

Air Quality

  Air Quality AQ Index Pollutant
Not available.

Snow Depth

Station Depth Elevation

Earthquake Activity

City Distance Mag. Time & Date
Minimum magnitude displayed is 2.5.

Coastal Water Temperatures

Place Temperature

Stations

Nearby Weather Stations

Station Location Temp. Windchill Dew Point Humidity Wind Precip. Elev Updated Type